Time;durP1;ratioP1;P1;durP2;ratioP2;P2;SDS_P1;SDS_P2;PMS_P1;PMS_P2;Temp;Humidity;BMP_temperature;BMP_pressure;BME280_temperature;BME280_humidity;BME280_pressure;Samples;Min_cycle;Max_cycle;Signal;HPM_P1;HPM_P2
2021/12/09 00:01:07;;;;;;;14.25;5.97;;;;;;;-7.41;78.14;100431.81;4826206;29;20058;-79
2021/12/09 00:03:41;;;;;;;12.00;5.05;;;;;;;-7.38;77.89;100429.50;4819468;29;20058;-76
2021/12/09 00:06:11;;;;;;;12.20;5.10;;;;;;;-7.44;77.21;100437.53;4808391;29;20074;-81
2021/12/09 00:08:41;;;;;;;10.73;5.35;;;;;;;-7.38;77.49;100449.81;4808265;29;20576;-79
2021/12/09 00:11:09;;;;;;;12.18;5.55;;;;;;;-7.33;77.64;100428.28;4810638;29;20096;-77
2021/12/09 00:13:36;;;;;;;13.90;5.88;;;;;;;-7.42;77.26;100409.72;4808755;29;20065;-79
2021/12/09 00:16:04;;;;;;;14.43;5.63;;;;;;;-7.37;77.56;100423.69;4808840;29;20573;-78
2021/12/09 00:18:31;;;;;;;12.05;4.35;;;;;;;-7.43;77.66;100420.66;4809862;29;20435;-82
2021/12/09 00:20:59;;;;;;;10.02;4.30;;;;;;;-7.54;77.41;100429.91;4807910;29;20535;-78
2021/12/09 00:23:26;;;;;;;12.38;4.93;;;;;;;-7.55;77.56;100422.16;4806491;29;20058;-78
2021/12/09 00:25:54;;;;;;;14.30;5.60;;;;;;;-7.60;77.54;100431.03;4810045;29;20158;-81
2021/12/09 00:28:21;;;;;;;10.90;5.40;;;;;;;-7.56;77.78;100412.78;4812068;29;20085;-78
2021/12/09 00:30:48;;;;;;;8.27;4.25;;;;;;;-7.45;77.78;100417.97;4814206;29;20062;-77
2021/12/09 00:33:16;;;;;;;11.38;4.32;;;;;;;-7.54;77.73;100426.47;4795034;29;20077;-79
2021/12/09 00:35:56;;;;;;;14.02;6.22;;;;;;;-7.47;77.38;100428.75;4805424;29;20055;-82
2021/12/09 00:38:36;;;;;;;12.00;4.93;;;;;;;-7.38;77.43;100428.63;4806800;29;20090;-81
2021/12/09 00:41:08;;;;;;;10.63;4.60;;;;;;;-7.51;77.29;100430.13;4805540;29;20390;-80
2021/12/09 00:43:35;;;;;;;;;;;;;;;-7.59;78.40;100432.78;4807487;29;20114;-78
2021/12/09 00:46:03;;;;;;;9.40;4.70;;;;;;;-7.48;77.53;100427.88;4814285;29;19940;-77
2021/12/09 00:48:31;;;;;;;9.68;4.50;;;;;;;-7.52;77.08;100440.19;4825165;29;20086;-81
2021/12/09 00:50:59;;;;;;;11.52;5.43;;;;;;;-7.57;77.62;100431.28;4823779;29;20088;-81
2021/12/09 00:53:27;;;;;;;10.13;4.80;;;;;;;-7.57;77.85;100443.97;4824948;29;20092;-80
2021/12/09 00:55:55;;;;;;;10.88;4.50;;;;;;;-7.65;77.83;100441.69;4823767;29;20534;-78
2021/12/09 00:58:29;;;;;;;11.23;5.03;;;;;;;-7.67;77.79;100442.31;5070459;28;20387;-79
2021/12/09 01:00:57;;;;;;;11.55;5.07;;;;;;;-7.55;77.54;100442.44;5070330;28;20049;-80
2021/12/09 01:03:24;;;;;;;12.27;5.15;;;;;;;-7.49;77.73;100448.03;5070270;28;20102;-80
2021/12/09 01:05:52;;;;;;;11.32;5.22;;;;;;;-7.50;77.50;100441.22;5070037;28;20140;-80
2021/12/09 01:08:40;;;;;;;9.68;5.03;;;;;;;-7.39;77.38;100442.97;5070436;28;20139;-77
2021/12/09 01:11:07;;;;;;;13.18;5.05;;;;;;;-7.49;77.43;100417.59;5068876;28;20063;-78
2021/12/09 01:13:36;;;;;;;11.50;4.88;;;;;;;-7.42;77.33;100441.09;5070373;28;20052;-77
2021/12/09 01:16:03;;;;;;;10.60;5.50;;;;;;;-7.44;77.32;100442.59;5070068;28;20044;-78
2021/12/09 01:18:34;;;;;;;12.93;5.18;;;;;;;-7.42;77.39;100436.00;5070052;28;20098;-80
2021/12/09 01:21:03;;;;;;;9.95;4.50;;;;;;;-7.37;77.56;100445.66;5069796;28;20059;-80
2021/12/09 01:23:31;;;;;;;11.25;5.25;;;;;;;-7.44;76.91;100445.16;5070175;28;20052;-76
2021/12/09 01:26:02;;;;;;;10.15;4.65;;;;;;;-7.42;77.31;100447.78;5069784;28;20102;-78
2021/12/09 01:28:35;;;;;;;10.45;4.72;;;;;;;-7.42;77.32;100435.09;5070019;28;20049;-78
2021/12/09 01:31:06;;;;;;;11.63;4.60;;;;;;;-7.49;77.03;100450.59;5069757;28;20508;-78
2021/12/09 01:33:34;;;;;;;13.38;5.20;;;;;;;-7.50;77.45;100446.28;5069859;28;20049;-78
2021/12/09 01:36:04;;;;;;;12.80;4.75;;;;;;;-7.38;77.35;100434.59;5069365;28;20057;-77
2021/12/09 01:38:32;;;;;;;11.23;5.00;;;;;;;-7.28;77.32;100461.66;5069382;28;20053;-77
2021/12/09 01:41:02;;;;;;;12.20;4.72;;;;;;;-7.32;77.16;100445.25;5069678;28;20102;-78
2021/12/09 01:43:29;;;;;;;10.68;5.45;;;;;;;-7.32;77.28;100447.81;5069475;28;20114;-78
2021/12/09 01:46:10;;;;;;;15.32;5.30;;;;;;;-7.28;76.85;100436.25;5069250;28;20055;-77
2021/12/09 01:48:41;;;;;;;10.10;5.25;;;;;;;-7.35;76.95;100437.41;5069549;28;20064;-78
2021/12/09 01:51:09;;;;;;;;;;;;;;;-7.42;77.81;100446.16;5069750;28;20102;-78
2021/12/09 01:53:38;;;;;;;8.32;3.88;;;;;;;-7.45;77.48;100430.66;5069325;28;19924;-79
2021/12/09 01:56:10;;;;;;;8.95;4.47;;;;;;;-7.37;77.22;100438.03;5067856;28;20052;-78
2021/12/09 01:58:37;;;;;;;12.88;5.57;;;;;;;-7.46;77.58;100411.13;5069199;28;20051;-79
2021/12/09 02:01:08;;;;;;;11.30;5.30;;;;;;;-7.27;77.24;100446.56;5067952;28;20510;-79
2021/12/09 02:03:36;;;;;;;11.38;4.63;;;;;;;-7.35;77.29;100445.03;5071820;28;20056;-80
2021/12/09 02:06:04;;;;;;;9.38;4.10;;;;;;;-7.39;77.74;100442.97;5069110;28;20110;-78
2021/12/09 02:08:31;;;;;;;9.48;4.13;;;;;;;-7.50;77.38;100429.41;5063664;28;20182;-79
2021/12/09 02:10:59;;;;;;;10.07;4.68;;;;;;;-7.43;77.76;100448.56;5054020;28;20131;-78
2021/12/09 02:13:27;;;;;;;8.10;3.28;;;;;;;-7.64;77.85;100443.44;5036353;28;20049;-80
2021/12/09 02:15:56;;;;;;;10.10;4.80;;;;;;;-7.54;78.35;100450.19;5036206;28;20088;-77
2021/12/09 02:18:24;;;;;;;10.20;4.40;;;;;;;-7.55;77.67;100466.19;5047958;28;20056;-79
2021/12/09 02:21:19;;;;;;;13.32;5.03;;;;;;;-7.50;78.01;100467.47;5034237;28;20064;-80
2021/12/09 02:23:53;;;;;;;7.30;4.03;;;;;;;-7.54;77.91;100469.63;5035786;28;20069;-76
2021/12/09 02:26:24;;;;;;;13.07;5.57;;;;;;;-7.55;78.29;100471.28;5036006;28;20140;-80
2021/12/09 02:28:53;;;;;;;11.30;4.72;;;;;;;-7.42;77.99;100461.41;5035942;28;20053;-78
2021/12/09 02:31:21;;;;;;;10.93;5.28;;;;;;;-7.34;77.49;100469.63;5035285;28;20063;-77
2021/12/09 02:33:48;;;;;;;9.40;3.80;;;;;;;-7.31;77.47;100476.59;5035489;28;20060;-78
2021/12/09 02:36:16;;;;;;;9.02;4.18;;;;;;;-7.34;77.75;100482.31;5034384;28;20572;-78
2021/12/09 02:38:44;;;;;;;8.75;4.38;;;;;;;-7.31;77.70;100471.53;5036147;28;20050;-77
2021/12/09 02:41:17;;;;;;;5.95;3.47;;;;;;;-7.31;78.29;100484.22;5035541;28;20148;-79
2021/12/09 02:43:47;;;;;;;7.13;3.63;;;;;;;-7.37;78.29;100492.22;5035144;28;20417;-78
2021/12/09 02:46:16;;;;;;;12.15;5.65;;;;;;;-7.44;78.42;100485.75;5035775;28;20060;-79
2021/12/09 02:48:44;;;;;;;9.38;4.45;;;;;;;-7.26;78.12;100495.69;5035694;28;20103;-78
2021/12/09 02:51:12;;;;;;;10.25;4.55;;;;;;;-7.19;78.11;100505.56;5034824;28;20518;-78
2021/12/09 02:53:40;;;;;;;16.02;5.40;;;;;;;-7.25;77.65;100487.28;5035367;28;20080;-77
2021/12/09 02:56:08;;;;;;;14.52;4.85;;;;;;;-7.22;77.68;100502.78;5034986;28;20080;-78
2021/12/09 02:58:35;;;;;;;7.75;4.30;;;;;;;-7.34;78.24;100501.75;5034792;28;20057;-79
2021/12/09 03:01:17;;;;;;;9.90;5.05;;;;;;;-7.46;77.80;100483.84;5035136;28;20425;-77
2021/12/09 03:03:51;;;;;;;11.32;5.03;;;;;;;-7.39;78.27;100500.50;5035754;28;20058;-78
2021/12/09 03:06:28;;;;;;;10.98;4.78;;;;;;;-7.36;78.14;100496.53;5034223;28;20057;-79
2021/12/09 03:08:56;;;;;;;11.93;4.57;;;;;;;-7.39;77.73;100480.19;5035276;28;20398;-78
2021/12/09 03:11:24;;;;;;;11.27;4.68;;;;;;;-7.38;78.14;100485.34;5035579;28;20077;-81
2021/12/09 03:13:52;;;;;;;8.98;4.47;;;;;;;-7.30;77.79;100512.28;5036679;28;20049;-80
2021/12/09 03:16:22;;;;;;;10.05;4.60;;;;;;;-7.28;77.75;100514.97;5095683;28;20036;-78
2021/12/09 03:18:53;;;;;;;10.70;5.05;;;;;;;-7.16;77.77;100523.63;5070612;28;20138;-78
2021/12/09 03:21:29;;;;;;;10.52;4.88;;;;;;;-7.05;77.43;100514.34;5063898;28;20060;-78
2021/12/09 03:23:58;;;;;;;11.25;4.28;;;;;;;-6.96;77.13;100526.94;5071569;28;20053;-77
2021/12/09 03:26:29;;;;;;;11.77;4.60;;;;;;;-7.13;77.38;100528.06;5066578;28;20057;-78
2021/12/09 03:29:00;;;;;;;9.43;4.53;;;;;;;-7.13;77.47;100512.81;5053366;28;20077;-77
2021/12/09 03:31:28;;;;;;;11.82;4.97;;;;;;;-7.10;77.42;100541.88;5054777;28;20057;-78
2021/12/09 03:33:55;;;;;;;8.95;4.40;;;;;;;-7.17;77.04;100536.19;5054455;28;20053;-78
2021/12/09 03:36:28;;;;;;;9.35;4.57;;;;;;;-7.26;77.61;100539.72;5053044;28;20140;-78
2021/12/09 03:38:57;;;;;;;12.57;4.82;;;;;;;-7.18;77.35;100542.91;5054661;28;20076;-77
2021/12/09 03:41:24;;;;;;;13.32;5.95;;;;;;;-7.28;77.42;100520.03;5054766;28;20049;-80
2021/12/09 03:43:51;;;;;;;14.45;5.25;;;;;;;-7.26;77.17;100537.19;5055044;28;20053;-79
2021/12/09 03:46:19;;;;;;;11.18;4.88;;;;;;;-7.10;76.80;100546.97;5065761;28;20125;-78
2021/12/09 03:48:46;;;;;;;15.43;5.57;;;;;;;-7.05;76.72;100537.22;5057888;28;20049;-78
2021/12/09 03:51:13;;;;;;;13.35;4.85;;;;;;;-7.00;76.78;100530.84;5072356;28;20037;-79
2021/12/09 03:53:40;;;;;;;12.73;5.25;;;;;;;-7.07;77.20;100542.16;5068955;28;20053;-77
2021/12/09 03:56:08;;;;;;;11.98;5.05;;;;;;;-7.08;76.76;100549.63;5064489;28;20059;-80
2021/12/09 03:58:34;;;;;;;14.00;5.10;;;;;;;-7.17;77.58;100548.88;5066852;28;20048;-78
2021/12/09 04:01:03;;;;;;;13.63;5.70;;;;;;;-7.24;77.04;100550.00;5053999;28;20061;-80
2021/12/09 04:03:31;;;;;;;10.35;5.05;;;;;;;-7.28;77.46;100553.03;5054334;28;20064;-79
2021/12/09 04:05:58;;;;;;;13.38;4.90;;;;;;;-7.35;76.86;100535.53;5053545;28;20053;-79
2021/12/09 04:08:25;;;;;;;12.25;5.40;;;;;;;-7.32;77.37;100561.16;5053543;28;20053;-80
2021/12/09 04:10:52;;;;;;;11.48;4.40;;;;;;;-7.33;77.46;100562.81;5053325;28;20056;-79
2021/12/09 04:13:19;;;;;;;13.02;5.13;;;;;;;-7.36;77.41;100567.63;5053327;28;20055;-78
2021/12/09 04:15:46;;;;;;;10.18;4.75;;;;;;;-7.35;77.27;100560.91;5053996;28;20132;-79
2021/12/09 04:18:14;;;;;;;9.98;4.10;;;;;;;-7.31;76.48;100561.31;5054137;28;20049;-80
2021/12/09 04:20:41;;;;;;;11.63;5.28;;;;;;;-7.43;76.38;100561.13;5053412;28;20148;-78
2021/12/09 04:23:09;;;;;;;11.15;5.30;;;;;;;-7.41;76.77;100562.16;5046924;28;20059;-79
2021/12/09 04:25:36;;;;;;;15.13;5.95;;;;;;;-7.44;76.53;100543.25;5043327;28;20141;-81
2021/12/09 04:28:03;;;;;;;13.13;5.47;;;;;;;-7.39;76.45;100566.47;5047005;28;20063;-80
2021/12/09 04:30:34;;;;;;;13.98;5.95;;;;;;;-7.43;76.47;100563.66;5054218;28;20056;-80
2021/12/09 04:33:01;;;;;;;11.35;5.20;;;;;;;-7.46;76.03;100560.00;5054234;28;20086;-79
2021/12/09 04:35:28;;;;;;;13.65;6.07;;;;;;;-7.45;76.34;100557.56;5053789;28;20083;-80
2021/12/09 04:37:55;;;;;;;14.63;5.38;;;;;;;-7.47;76.23;100561.63;5052622;28;20064;-78
2021/12/09 04:40:22;;;;;;;14.57;5.55;;;;;;;-7.48;76.48;100539.56;5053499;28;20504;-79
2021/12/09 04:42:49;;;;;;;13.93;5.80;;;;;;;-7.45;76.80;100544.88;5053437;28;20053;-83
2021/12/09 04:45:16;;;;;;;17.45;5.63;;;;;;;-7.47;76.18;100532.81;5053706;28;20063;-82
2021/12/09 04:47:43;;;;;;;13.63;5.88;;;;;;;-7.41;76.25;100544.38;5053781;28;20072;-80
2021/12/09 04:50:11;;;;;;;12.38;5.30;;;;;;;-7.34;76.35;100565.22;5051937;28;20488;-81
2021/12/09 04:52:39;;;;;;;9.35;4.57;;;;;;;-7.38;76.38;100555.56;5051828;28;20053;-81
2021/12/09 04:55:08;;;;;;;12.38;5.65;;;;;;;-7.42;76.55;100549.31;5051346;28;20424;-82
2021/12/09 04:57:38;;;;;;;14.40;6.27;;;;;;;-7.29;76.03;100558.88;5053578;28;20056;-82
2021/12/09 05:00:13;;;;;;;14.20;6.03;;;;;;;-7.42;76.06;100549.31;5053987;28;20052;-80
2021/12/09 05:05:09;;;;;;;12.63;5.50;;;;;;;-7.46;76.23;100565.06;5055707;28;20088;-78
2021/12/09 05:07:36;;;;;;;16.70;5.93;;;;;;;-7.52;76.48;100569.63;5055687;28;20488;-80
2021/12/09 05:10:04;;;;;;;13.95;5.85;;;;;;;-7.69;76.75;100561.44;5052710;28;20056;-82
2021/12/09 05:12:32;;;;;;;16.60;6.78;;;;;;;-7.78;76.86;100568.25;5051517;28;20099;-80
2021/12/09 05:15:00;;;;;;;16.55;6.30;;;;;;;-7.89;76.95;100563.91;5052918;28;20053;-79
2021/12/09 05:17:26;;;;;;;14.35;5.53;;;;;;;-7.93;76.94;100579.59;5056179;28;20067;-80
2021/12/09 05:19:53;;;;;;;11.35;5.05;;;;;;;-8.01;76.91;100575.50;5056335;28;20057;-80
2021/12/09 05:22:20;;;;;;;16.40;5.88;;;;;;;-8.10;77.46;100567.97;5054002;28;20057;-80
2021/12/09 05:24:49;;;;;;;14.60;5.80;;;;;;;-8.13;77.46;100573.66;5052190;28;20464;-79
2021/12/09 05:27:18;;;;;;;13.02;5.68;;;;;;;-8.09;77.02;100588.38;5051711;28;20053;-79
2021/12/09 05:29:46;;;;;;;15.45;6.35;;;;;;;-8.07;77.41;100591.03;5050488;28;20468;-80
2021/12/09 05:32:13;;;;;;;14.20;5.97;;;;;;;-8.00;77.11;100588.31;5051967;28;20064;-80
2021/12/09 05:34:43;;;;;;;16.30;6.68;;;;;;;-7.98;76.98;100593.50;5052352;28;20520;-80
2021/12/09 05:37:19;;;;;;;15.15;5.80;;;;;;;-8.05;77.23;100592.06;5052944;28;20119;-78
2021/12/09 05:39:47;;;;;;;18.20;7.28;;;;;;;-8.07;76.75;100591.03;5052727;28;20060;-78
2021/12/09 05:42:16;;;;;;;12.93;4.63;;;;;;;-8.07;77.19;100599.53;5051308;28;20048;-79
2021/12/09 05:44:44;;;;;;;15.80;5.85;;;;;;;-8.20;77.23;100585.66;5055533;28;20061;-77
2021/12/09 05:47:12;;;;;;;11.82;5.82;;;;;;;-8.25;77.34;100583.59;5060282;28;20052;-80
2021/12/09 05:49:44;;;;;;;15.75;5.28;;;;;;;-8.27;77.50;100604.50;5057420;28;20524;-80
2021/12/09 05:52:11;;;;;;;;;;;;;;;-8.35;76.97;100595.31;5056332;28;20126;-80
2021/12/09 05:54:39;;;;;;;15.63;6.20;;;;;;;-8.30;77.01;100596.59;5056533;28;19924;-80
2021/12/09 05:57:06;;;;;;;12.25;6.00;;;;;;;-8.24;76.83;100598.06;5055961;28;20119;-81
2021/12/09 05:59:34;;;;;;;15.52;6.63;;;;;;;-8.30;76.50;100576.31;5057780;28;20053;-79
2021/12/09 06:02:01;;;;;;;11.57;5.93;;;;;;;-8.19;76.25;100601.00;5073725;28;20048;-79
2021/12/09 06:04:28;;;;;;;13.93;5.45;;;;;;;-8.26;76.59;100603.72;5073470;28;20096;-80
2021/12/09 06:06:54;;;;;;;18.50;6.97;;;;;;;-8.27;76.48;100605.38;5073587;28;20084;-78
2021/12/09 06:09:23;;;;;;;16.02;6.80;;;;;;;-8.34;76.10;100582.78;5053843;28;20055;-78
2021/12/09 06:11:51;;;;;;;13.48;5.75;;;;;;;-8.18;76.57;100600.22;5070538;28;20064;-78
2021/12/09 06:14:18;;;;;;;10.65;4.28;;;;;;;-8.26;76.67;100585.97;5057231;28;20045;-82
2021/12/09 06:16:45;;;;;;;14.38;5.78;;;;;;;-8.12;76.02;100604.97;5055376;28;20059;-79
2021/12/09 06:19:12;;;;;;;15.60;6.32;;;;;;;-8.06;76.29;100593.72;5053634;28;20202;-81
2021/12/09 06:21:40;;;;;;;11.68;4.78;;;;;;;-8.11;76.26;100596.59;5053481;28;20145;-79
2021/12/09 06:24:07;;;;;;;14.18;6.53;;;;;;;-8.12;76.00;100585.56;5055024;28;20103;-80
2021/12/09 06:26:34;;;;;;;14.13;6.20;;;;;;;-8.00;76.38;100605.16;5054272;28;20436;-79
2021/12/09 06:29:02;;;;;;;17.58;7.22;;;;;;;-7.96;76.04;100609.75;5053914;28;20053;-81
2021/12/09 06:31:29;;;;;;;16.75;7.45;;;;;;;-7.92;76.42;100596.56;5037512;28;20145;-81
2021/12/09 06:33:56;;;;;;;13.07;5.15;;;;;;;-7.80;76.36;100600.19;5053911;28;20053;-81
2021/12/09 06:36:23;;;;;;;14.20;6.47;;;;;;;-7.74;75.90;100608.34;5054408;28;20206;-83
2021/12/09 06:38:50;;;;;;;14.20;5.85;;;;;;;-7.67;75.69;100617.38;5053058;28;20075;-79
2021/12/09 06:41:17;;;;;;;20.73;6.45;;;;;;;-7.61;75.69;100615.38;5052395;28;20139;-82
2021/12/09 06:43:44;;;;;;;16.00;6.68;;;;;;;-7.55;75.73;100618.47;5041683;28;20135;-79
2021/12/09 06:46:13;;;;;;;18.85;6.80;;;;;;;-7.55;75.11;100622.63;5054222;28;20053;-83
2021/12/09 06:48:41;;;;;;;14.88;6.22;;;;;;;-7.57;75.79;100626.69;5054172;28;20067;-82
2021/12/09 06:51:09;;;;;;;17.85;7.38;;;;;;;-7.50;75.74;100621.41;5049147;28;20079;-82
2021/12/09 06:53:37;;;;;;;14.65;5.60;;;;;;;-7.44;75.25;100640.59;5048794;28;20114;-79
2021/12/09 06:56:05;;;;;;;17.75;6.85;;;;;;;-7.50;75.04;100641.69;5053976;28;20080;-82
2021/12/09 06:58:32;;;;;;;16.25;6.32;;;;;;;-7.46;75.34;100651.38;5054583;28;20080;-82
2021/12/09 07:01:00;;;;;;;18.13;7.53;;;;;;;-7.53;75.19;100639.75;5053945;28;20397;-82
2021/12/09 07:03:28;;;;;;;18.77;7.53;;;;;;;-7.37;74.92;100669.03;5053881;28;20515;-78
2021/12/09 07:05:57;;;;;;;16.50;7.85;;;;;;;-7.32;74.93;100675.41;5053783;28;20566;-79
2021/12/09 07:08:27;;;;;;;15.60;7.03;;;;;;;-7.46;74.19;100670.03;5054377;28;20056;-82
2021/12/09 07:10:54;;;;;;;16.00;5.78;;;;;;;-7.54;75.46;100667.56;5053470;28;20525;-79
2021/12/09 07:13:21;;;;;;;12.23;5.55;;;;;;;-7.55;74.74;100660.69;5054349;28;20084;-83
2021/12/09 07:15:49;;;;;;;16.35;6.28;;;;;;;-7.58;74.49;100679.09;5053416;28;20420;-79
2021/12/09 07:18:20;;;;;;;15.52;6.13;;;;;;;-7.58;74.77;100663.88;5053156;28;20501;-78
2021/12/09 07:20:47;;;;;;;11.35;5.32;;;;;;;-7.55;74.87;100678.47;5053204;28;20076;-80
2021/12/09 07:23:14;;;;;;;13.88;5.50;;;;;;;-7.68;74.56;100691.72;5052849;28;20060;-79
2021/12/09 07:25:41;;;;;;;18.67;7.55;;;;;;;-7.78;75.24;100677.34;5052592;28;20496;-79
2021/12/09 07:28:08;;;;;;;15.15;5.10;;;;;;;-7.74;74.25;100693.69;5053079;28;20088;-80
2021/12/09 07:30:35;;;;;;;12.50;5.72;;;;;;;-7.82;75.15;100687.97;5053149;28;20045;-80
2021/12/09 07:33:02;;;;;;;15.40;6.60;;;;;;;-7.94;74.24;100680.13;5052771;28;20063;-78
2021/12/09 07:35:30;;;;;;;17.90;6.60;;;;;;;-7.88;74.81;100680.69;5050454;28;20045;-79
2021/12/09 07:37:59;;;;;;;16.63;6.78;;;;;;;-7.83;74.33;100687.06;5042099;28;20060;-81
2021/12/09 07:40:27;;;;;;;16.30;7.47;;;;;;;-7.72;74.33;100689.66;5052769;28;20060;-82
2021/12/09 07:42:54;;;;;;;15.95;7.53;;;;;;;-7.71;74.40;100671.16;5051900;28;20584;-81
2021/12/09 07:45:22;;;;;;;16.33;6.53;;;;;;;-7.57;74.53;100679.97;5035028;28;20151;-83
2021/12/09 07:47:50;;;;;;;16.70;7.28;;;;;;;-7.60;74.41;100674.63;5058215;28;20051;-80
2021/12/09 07:50:21;;;;;;;16.13;6.70;;;;;;;-7.64;74.11;100648.97;5052611;28;20532;-81
2021/12/09 07:52:51;;;;;;;15.73;6.43;;;;;;;-7.53;73.78;100679.47;5052469;28;20505;-79
2021/12/09 07:55:21;;;;;;;15.20;6.85;;;;;;;-7.36;74.12;100701.28;5052016;28;20060;-80
2021/12/09 07:57:48;;;;;;;19.40;6.75;;;;;;;-7.33;73.75;100688.88;5049646;28;20056;-80
2021/12/09 08:00:20;;;;;;;14.93;5.72;;;;;;;-7.40;73.78;100672.19;5051609;28;20144;-80
2021/12/09 08:02:49;;;;;;;15.63;6.50;;;;;;;-7.34;73.78;100677.78;5052264;28;20072;-80
2021/12/09 08:05:19;;;;;;;15.77;6.43;;;;;;;-7.32;73.49;100688.09;5051588;28;20071;-80
2021/12/09 08:07:47;;;;;;;15.73;7.72;;;;;;;-7.32;73.59;100683.91;5050393;28;20049;-80
2021/12/09 08:10:18;;;;;;;15.50;6.40;;;;;;;-7.27;73.54;100687.75;5052426;28;20067;-79
2021/12/09 08:12:48;;;;;;;19.27;7.43;;;;;;;-7.22;73.38;100690.69;5052013;28;20059;-80
2021/12/09 08:15:32;;;;;;;13.13;6.38;;;;;;;-7.19;73.06;100677.34;5050344;28;20053;-78
2021/12/09 08:20:52;;;;;;;17.02;6.85;;;;;;;-7.15;73.30;100687.03;5050665;28;20485;-80
2021/12/09 08:23:19;;;;;;;13.23;5.78;;;;;;;-7.10;73.02;100703.53;5049354;28;20057;-80
2021/12/09 08:25:48;;;;;;;18.15;6.53;;;;;;;-6.99;73.30;100710.44;5053399;28;20091;-83
2021/12/09 08:28:16;;;;;;;17.42;6.60;;;;;;;-6.92;72.76;100701.72;5051701;28;20528;-79
2021/12/09 08:30:43;;;;;;;14.18;6.30;;;;;;;-6.94;72.83;100703.22;5051913;28;20049;-80
2021/12/09 08:33:19;;;;;;;19.42;7.22;;;;;;;-6.93;73.00;100680.47;5051583;28;20083;-80
2021/12/09 08:35:47;;;;;;;14.68;6.38;;;;;;;-6.85;73.05;100688.78;5050388;28;20471;-79
2021/12/09 08:38:15;;;;;;;13.07;6.22;;;;;;;-6.75;73.02;100693.88;5051462;28;20049;-79
2021/12/09 08:40:43;;;;;;;17.25;6.78;;;;;;;-6.80;73.06;100668.09;5049647;28;20072;-81
2021/12/09 08:43:10;;;;;;;14.70;6.00;;;;;;;-6.56;72.85;100695.41;5051273;28;20498;-80
2021/12/09 08:45:38;;;;;;;17.08;6.60;;;;;;;-6.53;72.44;100685.53;5052389;28;20057;-81
2021/12/09 08:48:06;;;;;;;15.95;6.90;;;;;;;-6.60;72.23;100663.78;5051368;28;20048;-80
2021/12/09 08:50:33;;;;;;;15.60;6.07;;;;;;;-6.47;72.34;100679.31;5049709;28;20060;-79
2021/12/09 08:53:09;;;;;;;15.38;6.85;;;;;;;-6.42;72.74;100682.22;5051344;28;20052;-81
2021/12/09 08:55:41;;;;;;;15.68;6.65;;;;;;;-6.36;72.49;100677.66;5051171;28;20574;-82
2021/12/09 08:58:13;;;;;;;17.30;6.60;;;;;;;-6.24;71.93;100687.94;5049563;28;20056;-81
2021/12/09 09:00:51;;;;;;;16.42;6.57;;;;;;;-6.21;72.32;100683.13;5051708;28;20072;-81
2021/12/09 09:03:24;;;;;;;13.88;6.10;;;;;;;-6.07;71.71;100679.16;5033552;28;20505;-83
2021/12/09 09:05:54;;;;;;;14.68;6.38;;;;;;;-6.19;71.60;100657.06;5051239;28;20047;-80
2021/12/09 09:08:21;;;;;;;15.88;6.38;;;;;;;-6.05;71.79;100650.53;5050269;28;20536;-80
2021/12/09 09:10:49;;;;;;;12.52;5.50;;;;;;;-5.90;71.56;100667.81;5051731;28;20118;-79
2021/12/09 09:13:16;;;;;;;13.85;6.00;;;;;;;-5.79;71.49;100690.78;5049622;28;20049;-79
2021/12/09 09:15:48;;;;;;;13.93;5.63;;;;;;;-5.73;71.86;100689.53;5048431;28;20048;-78
2021/12/09 09:18:21;;;;;;;14.30;5.63;;;;;;;-5.76;70.95;100685.09;5051078;28;20566;-81
2021/12/09 09:20:54;;;;;;;14.07;5.78;;;;;;;-5.77;71.42;100686.72;5052579;28;20516;-82
2021/12/09 09:23:25;;;;;;;21.38;5.35;;;;;;;-5.79;71.11;100695.88;5052540;28;20056;-79
2021/12/09 09:25:52;;;;;;;8.90;4.40;;;;;;;-5.80;71.42;100699.22;5050700;28;20152;-79
2021/12/09 09:28:25;;;;;;;12.18;4.55;;;;;;;-5.79;71.11;100695.00;5057278;28;20635;-80
2021/12/09 09:30:53;;;;;;;12.00;5.97;;;;;;;-5.86;71.23;100683.44;5056777;28;20061;-80
2021/12/09 09:33:23;;;;;;;12.80;5.10;;;;;;;-5.66;70.51;100697.78;5056502;28;20532;-80
2021/12/09 09:35:50;;;;;;;11.55;4.65;;;;;;;-5.62;70.89;100681.97;5052904;28;20084;-82
2021/12/09 09:38:19;;;;;;;12.50;4.93;;;;;;;-5.70;70.15;100674.50;5045180;28;20053;-80
2021/12/09 09:40:52;;;;;;;16.10;5.35;;;;;;;-5.81;70.09;100686.34;5035895;28;20057;-79
2021/12/09 09:43:30;;;;;;;13.85;5.10;;;;;;;-5.70;70.37;100689.78;5033518;28;20080;-82
2021/12/09 09:46:04;;;;;;;15.00;6.40;;;;;;;-5.55;70.04;100685.91;5036177;28;20049;-79
2021/12/09 09:48:33;;;;;;;12.73;5.93;;;;;;;-5.46;69.85;100696.84;5036008;28;20472;-78
2021/12/09 09:51:06;;;;;;;14.85;6.28;;;;;;;-5.56;69.65;100674.84;5035532;28;20133;-81
2021/12/09 09:53:34;;;;;;;13.57;5.78;;;;;;;-5.36;69.28;100695.91;5036177;28;20115;-82
2021/12/09 09:56:13;;;;;;;12.90;5.70;;;;;;;-5.41;69.50;100700.66;5036370;28;20506;-80
2021/12/09 09:58:44;;;;;;;14.82;5.88;;;;;;;-5.60;69.37;100683.00;5036057;28;20418;-82
2021/12/09 10:01:14;;;;;;;12.13;6.03;;;;;;;-5.66;69.26;100697.78;5038230;28;20059;-79
2021/12/09 10:03:46;;;;;;;11.98;5.63;;;;;;;-5.65;69.45;100702.13;5050202;28;20041;-79
2021/12/09 10:06:16;;;;;;;14.32;6.22;;;;;;;-5.63;69.87;100714.97;5056150;28;20045;-79
2021/12/09 10:08:43;;;;;;;13.23;6.07;;;;;;;-5.63;69.34;100702.25;5052630;28;20053;-80
2021/12/09 10:11:13;;;;;;;11.93;5.50;;;;;;;-5.63;68.70;100707.34;5045116;28;20394;-78
2021/12/09 10:13:42;;;;;;;12.75;5.85;;;;;;;-5.70;69.36;100711.03;5038986;28;20061;-79
2021/12/09 10:16:22;;;;;;;15.15;6.03;;;;;;;-5.74;69.03;100701.38;5046127;28;20063;-79
2021/12/09 10:18:52;;;;;;;15.97;5.97;;;;;;;-5.93;69.31;100693.00;5059204;28;20053;-81
2021/12/09 10:21:29;;;;;;;13.68;5.68;;;;;;;-5.95;69.19;100707.28;5059953;28;20061;-80
2021/12/09 10:24:03;;;;;;;12.70;5.25;;;;;;;-6.01;69.45;100708.53;5057574;28;20507;-80
2021/12/09 10:26:37;;;;;;;13.48;5.82;;;;;;;-6.09;69.44;100714.66;5056947;28;20045;-79
2021/12/09 10:29:24;;;;;;;11.52;5.50;;;;;;;-6.02;69.38;100711.88;5054711;28;20083;-79
2021/12/09 10:31:59;;;;;;;11.68;5.50;;;;;;;-5.87;69.32;100702.03;5055631;28;20084;-80
2021/12/09 10:34:38;;;;;;;13.75;5.47;;;;;;;-6.06;68.96;100666.59;5055675;28;20544;-81
2021/12/09 10:37:23;;;;;;;13.80;5.82;;;;;;;-5.97;68.90;100702.06;5046876;28;20057;-79
2021/12/09 10:39:54;;;;;;;14.18;5.30;;;;;;;-5.98;68.49;100705.34;5094005;28;20113;-79
2021/12/09 10:42:30;;;;;;;11.40;5.10;;;;;;;-6.17;68.22;100713.16;5061165;28;20063;-79
2021/12/09 10:44:59;;;;;;;13.50;5.47;;;;;;;-6.27;69.05;100720.75;5061289;28;20052;-80
2021/12/09 10:50:32;;;;;;;14.70;6.18;;;;;;;-6.27;68.98;100720.75;5051616;28;20053;-80
2021/12/09 10:55:55;;;;;;;10.55;5.30;;;;;;;-6.48;68.98;100725.81;5055628;28;20060;-84
2021/12/09 10:58:29;;;;;;;13.00;5.60;;;;;;;-6.61;68.25;100734.03;5055225;28;20065;-80
2021/12/09 11:01:00;;;;;;;13.02;6.43;;;;;;;-6.63;68.47;100725.41;5055199;28;20140;-79
2021/12/09 11:03:34;;;;;;;12.27;5.25;;;;;;;-6.67;68.18;100720.81;5055830;28;20505;-80
2021/12/09 11:06:08;;;;;;;15.70;6.75;;;;;;;-6.67;68.23;100719.94;5055329;28;20052;-80
2021/12/09 11:08:36;;;;;;;15.07;5.97;;;;;;;-6.60;68.57;100725.69;5055784;28;20059;-81
2021/12/09 11:11:16;;;;;;;10.70;4.75;;;;;;;-6.53;68.17;100728.75;5056414;28;20057;-79
2021/12/09 11:13:51;;;;;;;16.58;6.00;;;;;;;-6.64;67.65;100718.56;5058349;28;20106;-81
2021/12/09 11:16:29;;;;;;;14.25;5.30;;;;;;;-6.61;67.71;100734.03;5058132;28;20057;-79
2021/12/09 11:19:05;;;;;;;13.50;4.85;;;;;;;-6.65;67.68;100748.91;5057595;28;20120;-79
2021/12/09 11:21:37;;;;;;;10.10;4.72;;;;;;;-6.79;67.50;100740.13;5058076;28;20083;-79
2021/12/09 11:24:18;;;;;;;13.48;6.35;;;;;;;-6.80;67.60;100757.03;5062381;28;20075;-79
2021/12/09 11:27:02;;;;;;;12.20;5.80;;;;;;;-6.80;67.86;100762.09;5054989;28;20059;-79
2021/12/09 11:29:34;;;;;;;12.18;5.68;;;;;;;-6.81;67.59;100747.59;5054217;28;20060;-82
2021/12/09 11:32:14;;;;;;;13.10;6.22;;;;;;;-6.97;67.66;100744.47;5054018;28;20084;-83
2021/12/09 11:34:52;;;;;;;;;;;;;;;-6.93;67.78;100771.03;5052800;28;20491;-79
2021/12/09 11:37:48;;;;;;;15.40;5.97;;;;;;;-6.83;68.03;100766.91;5053621;28;20404;-78
2021/12/09 11:40:09;;;;;;;10.73;5.03;;;;;;;-6.84;67.37;100771.84;5047703;28;20448;-84
2021/12/09 11:42:49;;;;;;;13.63;6.13;;;;;;;-7.11;67.34;100756.00;5042329;28;20061;-81